createdAt,value
2022-07-26T00:00:36.474Z,63.07
2022-07-26T00:01:43.950Z,63.17
2022-07-26T00:02:47.440Z,63.17
2022-07-26T00:05:57.223Z,63.37
2022-07-26T00:07:03.819Z,63.27
2022-07-26T00:08:03.790Z,63.57
2022-07-26T00:09:03.916Z,63.07
2022-07-26T00:10:03.777Z,63.27
2022-07-26T00:11:07.439Z,63.57
2022-07-26T00:11:56.633Z,63.77
2022-07-26T00:13:03.748Z,63.80
2022-07-26T00:13:56.670Z,63.90
2022-07-26T00:14:56.630Z,64.00
2022-07-26T00:15:56.976Z,64.10
2022-07-26T00:16:56.654Z,64.00
2022-07-26T00:17:56.601Z,64.10
2022-07-26T00:18:56.543Z,64.20
2022-07-26T00:19:56.497Z,64.30
2022-07-26T00:20:57.000Z,64.50
2022-07-26T00:21:56.523Z,64.33
2022-07-26T00:22:56.502Z,64.33
2022-07-26T00:23:56.482Z,64.83
2022-07-26T00:24:56.490Z,64.83
2022-07-26T00:25:56.770Z,64.93
2022-07-26T00:26:56.431Z,65.23
2022-07-26T00:27:56.421Z,65.13
2022-07-26T00:28:56.411Z,65.23
2022-07-26T00:29:56.770Z,65.03
2022-07-26T00:30:56.368Z,65.03
2022-07-26T00:31:56.464Z,65.03
2022-07-26T00:32:56.361Z,65.13
2022-07-26T00:33:56.350Z,65.03
2022-07-26T00:34:56.739Z,65.23
2022-07-26T00:35:56.307Z,65.03
2022-07-26T00:36:56.305Z,65.03
2022-07-26T00:37:56.307Z,65.23
2022-07-26T00:38:56.444Z,65.23
2022-07-26T00:39:56.739Z,65.53
2022-07-26T00:40:56.261Z,65.43
2022-07-26T00:41:56.236Z,65.43
2022-07-26T00:42:56.211Z,65.53
2022-07-26T00:43:56.192Z,65.50
2022-07-26T00:44:56.537Z,65.40
2022-07-26T00:45:56.292Z,64.90
2022-07-26T00:46:56.176Z,64.90
2022-07-26T00:47:56.159Z,64.20
2022-07-26T00:48:56.220Z,64.40
2022-07-26T00:49:56.139Z,63.40
2022-07-26T00:50:56.488Z,63.40
2022-07-26T00:51:56.112Z,63.27
2022-07-26T00:52:56.089Z,63.37
2022-07-26T00:53:56.079Z,63.37
2022-07-26T00:54:56.080Z,63.37
2022-07-26T00:55:56.068Z,63.47
2022-07-26T00:56:56.519Z,63.47
2022-07-26T00:57:56.047Z,63.77
2022-07-26T00:58:56.036Z,63.77
2022-07-26T00:59:56.008Z,63.97
2022-07-26T01:00:56.082Z,64.07
2022-07-26T01:02:03.621Z,64.07
2022-07-26T01:03:04.452Z,64.27
2022-07-26T01:04:04.143Z,64.27
2022-07-26T01:05:03.098Z,64.27
2022-07-26T01:05:55.977Z,64.47
2022-07-26T01:06:56.084Z,64.47
2022-07-26T01:07:56.382Z,64.47
2022-07-26T01:08:55.906Z,64.90
2022-07-26T01:09:55.885Z,65.00
2022-07-26T01:10:55.845Z,65.00
2022-07-26T01:11:55.881Z,65.20
2022-07-26T01:12:55.845Z,65.40
2022-07-26T01:13:56.315Z,65.40
2022-07-26T01:14:55.885Z,65.60
2022-07-26T01:15:55.901Z,65.80
2022-07-26T01:16:55.897Z,65.50
2022-07-26T01:17:55.770Z,65.70
2022-07-26T01:18:55.814Z,65.60
2022-07-26T01:19:55.768Z,65.50
2022-07-26T01:20:55.726Z,65.20
2022-07-26T01:21:55.717Z,65.40
2022-07-26T01:22:55.694Z,65.60
2022-07-26T01:23:56.082Z,65.70
2022-07-26T01:24:55.973Z,65.60
2022-07-26T01:25:55.674Z,65.70
2022-07-26T01:26:55.700Z,65.53
2022-07-26T01:27:55.654Z,65.53
2022-07-26T01:28:56.057Z,65.50
2022-07-26T01:29:55.622Z,65.60
2022-07-26T01:30:55.625Z,65.60
2022-07-26T01:31:55.613Z,65.73
2022-07-26T01:32:56.005Z,65.73
2022-07-26T01:33:55.572Z,65.63
2022-07-26T01:34:55.551Z,65.83
2022-07-26T01:35:55.548Z,65.70
2022-07-26T01:36:55.571Z,65.80
2022-07-26T01:37:55.571Z,65.80
2022-07-26T01:38:55.884Z,65.70
2022-07-26T01:39:55.482Z,65.60
2022-07-26T01:40:55.494Z,65.60
2022-07-26T01:41:55.482Z,65.80
2022-07-26T01:42:55.903Z,65.80
2022-07-26T01:43:55.450Z,65.70
2022-07-26T01:44:55.440Z,65.60
2022-07-26T01:45:55.468Z,65.70
2022-07-26T01:46:55.441Z,65.70
2022-07-26T01:47:55.832Z,65.60
2022-07-26T01:48:55.493Z,65.70
2022-07-26T01:49:55.351Z,65.80
2022-07-26T01:50:55.363Z,66.39
2022-07-26T01:51:55.371Z,67.80
2022-07-26T01:52:55.701Z,68.82
2022-07-26T01:53:58.873Z,70.03
2022-07-26T01:54:55.282Z,70.96
2022-07-26T01:55:55.269Z,71.89
2022-07-26T01:56:55.542Z,72.53
2022-07-26T01:57:55.345Z,73.13
2022-07-26T01:58:55.262Z,73.83
2022-07-26T01:59:55.269Z,74.16
2022-07-26T02:00:55.237Z,74.66
2022-07-26T02:01:55.491Z,74.87
2022-07-26T02:02:55.347Z,74.76
2022-07-26T02:03:55.194Z,75.26
2022-07-26T02:04:55.161Z,75.70
2022-07-26T02:05:55.158Z,76.20
2022-07-26T02:06:55.991Z,76.40
2022-07-26T02:07:55.430Z,76.43
2022-07-26T02:08:55.139Z,76.84
2022-07-26T02:09:55.139Z,77.14
2022-07-26T02:10:55.090Z,77.24
2022-07-26T02:11:55.801Z,77.58
2022-07-26T02:12:55.427Z,77.48
2022-07-26T02:13:55.042Z,77.58
2022-07-26T02:14:55.070Z,77.67
2022-07-26T02:15:55.082Z,77.67
2022-07-26T02:16:55.289Z,77.78
2022-07-26T02:17:55.048Z,77.67
2022-07-26T02:18:54.999Z,77.98
2022-07-26T02:19:54.987Z,77.87
2022-07-26T02:20:54.989Z,77.98
2022-07-26T02:21:55.267Z,78.08
2022-07-26T02:22:54.972Z,77.87
2022-07-26T02:23:54.942Z,78.18
2022-07-26T02:24:54.937Z,78.18
2022-07-26T02:25:54.896Z,78.18
2022-07-26T02:26:55.138Z,77.98
2022-07-26T02:27:54.869Z,78.08
2022-07-26T02:28:54.938Z,78.08
2022-07-26T02:29:54.865Z,78.08
2022-07-26T02:30:54.888Z,77.98
2022-07-26T02:31:55.118Z,78.08
2022-07-26T02:32:54.789Z,78.08
2022-07-26T02:33:55.050Z,78.28
2022-07-26T02:34:54.849Z,78.28
2022-07-26T02:35:54.778Z,78.28
2022-07-26T02:36:55.069Z,78.48
2022-07-26T02:37:55.037Z,78.48
2022-07-26T02:38:54.728Z,78.38
2022-07-26T02:39:54.738Z,78.38
2022-07-26T02:40:54.689Z,78.48
2022-07-26T02:41:54.958Z,78.48
2022-07-26T02:42:54.697Z,78.28
2022-07-26T02:43:54.679Z,78.38
2022-07-26T02:44:54.658Z,78.38
2022-07-26T02:46:01.771Z,78.38
2022-07-26T02:46:55.900Z,78.18
2022-07-26T02:47:54.654Z,78.38
2022-07-26T02:48:54.819Z,78.28
2022-07-26T02:49:54.654Z,78.38
2022-07-26T02:50:54.967Z,78.28
2022-07-26T02:51:56.412Z,78.18
2022-07-26T02:52:54.557Z,78.08
2022-07-26T02:53:54.546Z,77.98
2022-07-26T02:54:54.576Z,78.18
2022-07-26T02:55:54.948Z,78.28
2022-07-26T02:56:54.553Z,78.28
2022-07-26T02:57:54.517Z,78.18
2022-07-26T02:58:54.502Z,78.18
2022-07-26T02:59:54.475Z,78.28
2022-07-26T03:00:54.887Z,78.08
2022-07-26T03:01:54.495Z,78.98
2022-07-26T03:02:54.562Z,78.98
2022-07-26T03:03:54.434Z,79.18
2022-07-26T03:04:54.399Z,78.98
2022-07-26T03:05:54.716Z,79.28
2022-07-26T03:06:54.436Z,80.18
2022-07-26T03:07:54.378Z,80.18
2022-07-26T03:08:54.369Z,80.38
2022-07-26T03:09:54.337Z,80.08
2022-07-26T03:10:54.734Z,80.48
2022-07-26T03:11:54.443Z,81.38
2022-07-26T03:12:54.285Z,82.29
2022-07-26T03:13:54.283Z,82.39
2022-07-26T03:14:54.685Z,82.79
2022-07-26T03:15:54.294Z,83.19
2022-07-26T03:16:54.258Z,84.19
2022-07-26T03:17:54.252Z,84.49
2022-07-26T03:18:54.243Z,84.53
2022-07-26T03:19:54.672Z,85.33
2022-07-26T03:20:54.885Z,84.03
2022-07-26T03:21:54.706Z,84.74
2022-07-26T03:22:54.155Z,83.83
2022-07-26T03:23:54.156Z,83.13
2022-07-26T03:24:54.773Z,82.93
2022-07-26T03:25:54.153Z,82.93
2022-07-26T03:26:54.103Z,83.03
2022-07-26T03:27:54.123Z,83.53
2022-07-26T03:28:54.103Z,83.73
2022-07-26T03:29:54.523Z,83.53
2022-07-26T03:30:54.128Z,83.43
2022-07-26T03:31:54.086Z,83.33
2022-07-26T03:32:54.033Z,83.67
2022-07-26T03:33:54.052Z,83.67
2022-07-26T03:34:54.336Z,83.67
2022-07-26T03:35:54.033Z,83.57
2022-07-26T03:36:54.013Z,83.67
2022-07-26T03:37:53.993Z,83.47
2022-07-26T03:38:54.391Z,83.17
2022-07-26T03:39:54.011Z,82.67
2022-07-26T03:40:53.928Z,82.17
2022-07-26T03:41:53.932Z,81.87
2022-07-26T03:42:53.916Z,82.67
2022-07-26T03:43:54.011Z,82.46
2022-07-26T03:44:54.867Z,82.57
2022-07-26T03:45:54.261Z,82.63
2022-07-26T03:46:54.049Z,82.67
2022-07-26T03:47:53.842Z,82.26
2022-07-26T03:48:53.887Z,81.76
2022-07-26T03:49:53.841Z,81.87
2022-07-26T03:50:54.273Z,82.17
2022-07-26T03:51:54.488Z,82.06
2022-07-26T03:52:54.649Z,82.26
2022-07-26T03:53:55.762Z,81.96
2022-07-26T03:54:53.765Z,82.06
2022-07-26T03:55:53.758Z,82.37
2022-07-26T03:56:55.125Z,82.57
2022-07-26T03:57:53.709Z,82.76
2022-07-26T03:58:53.721Z,82.97
2022-07-26T03:59:53.740Z,82.67
2022-07-26T04:00:53.717Z,82.37
2022-07-26T04:01:54.126Z,82.06
2022-07-26T04:02:53.645Z,82.06
2022-07-26T04:03:54.282Z,81.87
2022-07-26T04:04:54.056Z,81.96
2022-07-26T04:05:53.729Z,82.17
2022-07-26T04:06:53.649Z,82.17
2022-07-26T04:07:54.046Z,82.26
2022-07-26T04:08:53.676Z,82.46
2022-07-26T04:09:54.652Z,82.97
2022-07-26T04:10:53.732Z,82.46
2022-07-26T04:11:53.879Z,82.46
2022-07-26T04:12:53.569Z,82.67
2022-07-26T04:13:53.839Z,82.87
2022-07-26T04:14:53.648Z,82.97
2022-07-26T04:15:53.696Z,83.17
2022-07-26T04:16:53.899Z,83.47
2022-07-26T04:17:53.991Z,83.37
2022-07-26T04:18:53.568Z,83.77
2022-07-26T04:19:53.468Z,83.77
2022-07-26T04:20:53.508Z,83.67
2022-07-26T04:21:53.410Z,83.37
2022-07-26T04:22:53.955Z,83.17
2022-07-26T04:23:53.908Z,83.21
2022-07-26T04:24:53.460Z,82.87
2022-07-26T04:25:56.407Z,83.17
2022-07-26T04:26:53.380Z,83.57
2022-07-26T04:27:53.315Z,84.01
2022-07-26T04:28:53.387Z,84.31
2022-07-26T04:29:53.318Z,84.41
2022-07-26T04:30:53.391Z,84.31
2022-07-26T04:31:53.686Z,83.71
2022-07-26T04:32:53.308Z,83.21
2022-07-26T04:33:56.905Z,82.81
2022-07-26T04:34:58.757Z,82.90
2022-07-26T04:35:53.243Z,83.51
2022-07-26T04:36:53.264Z,83.51
2022-07-26T04:37:53.285Z,82.90
2022-07-26T04:38:53.246Z,82.31
2022-07-26T04:39:55.057Z,82.51
2022-07-26T04:40:53.208Z,82.40
2022-07-26T04:42:00.599Z,82.60
2022-07-26T04:43:01.896Z,82.70
2022-07-26T04:44:00.306Z,82.84
2022-07-26T04:44:53.509Z,83.04
2022-07-26T04:46:00.295Z,83.15
2022-07-26T04:47:00.318Z,83.35
2022-07-26T04:48:00.218Z,83.85
2022-07-26T04:49:00.869Z,83.95
2022-07-26T04:50:00.281Z,83.65
2022-07-26T04:51:01.293Z,83.35
2022-07-26T04:52:00.206Z,83.45
2022-07-26T04:52:53.033Z,83.75
2022-07-26T04:53:52.964Z,83.75
2022-07-26T04:54:53.193Z,83.55
2022-07-26T04:55:52.993Z,83.95
2022-07-26T04:56:52.950Z,84.01
2022-07-26T04:57:52.941Z,84.01
2022-07-26T04:58:53.178Z,83.21
2022-07-26T05:00:10.004Z,83.61
2022-07-26T05:01:09.439Z,83.41
2022-07-26T05:01:53.953Z,83.01
2022-07-26T05:02:53.037Z,82.76
2022-07-26T05:03:52.879Z,82.76
2022-07-26T05:04:52.880Z,82.76
2022-07-26T05:05:52.893Z,82.23
2022-07-26T05:06:53.307Z,81.82
2022-07-26T05:07:52.801Z,81.38
2022-07-26T05:08:52.814Z,80.88
2022-07-26T05:09:52.808Z,80.54
2022-07-26T05:10:55.610Z,80.65
2022-07-26T05:11:53.189Z,80.35
2022-07-26T05:12:52.720Z,80.11
2022-07-26T05:13:52.708Z,80.41
2022-07-26T05:14:52.690Z,80.00
2022-07-26T05:15:53.013Z,79.91
2022-07-26T05:16:53.309Z,80.07
2022-07-26T05:17:52.671Z,79.97
2022-07-26T05:18:52.641Z,78.83
2022-07-26T05:19:54.400Z,77.73
2022-07-26T05:20:53.049Z,76.89
2022-07-26T05:21:52.616Z,76.59
2022-07-26T05:22:52.599Z,75.65
2022-07-26T05:23:52.589Z,75.35
2022-07-26T05:24:52.569Z,74.92
2022-07-26T05:25:52.959Z,74.52
2022-07-26T05:26:55.443Z,73.72
2022-07-26T05:27:53.579Z,73.28
2022-07-26T05:28:52.515Z,72.89
2022-07-26T05:29:52.500Z,72.35
2022-07-26T05:30:52.925Z,72.05
2022-07-26T05:31:52.477Z,71.45
2022-07-26T05:32:52.467Z,71.45
2022-07-26T05:33:52.490Z,71.66
2022-07-26T05:34:52.474Z,72.05
2022-07-26T05:35:52.807Z,71.66
2022-07-26T05:36:52.422Z,71.95
2022-07-26T05:37:52.427Z,72.05
2022-07-26T05:38:52.390Z,71.36
2022-07-26T05:39:52.379Z,70.76
2022-07-26T05:40:52.800Z,71.19
2022-07-26T05:41:52.344Z,71.99
2022-07-26T05:42:52.335Z,71.89
2022-07-26T05:43:52.325Z,71.79
2022-07-26T05:44:52.644Z,71.19
2022-07-26T05:45:52.339Z,70.79
2022-07-26T05:46:52.296Z,70.76
2022-07-26T05:47:52.274Z,70.76
2022-07-26T05:48:52.307Z,70.56
2022-07-26T05:49:52.237Z,69.96
2022-07-26T05:50:52.677Z,70.16
2022-07-26T05:51:52.208Z,70.56
2022-07-26T05:52:52.220Z,69.82
2022-07-26T05:53:52.216Z,68.90
2022-07-26T05:54:52.225Z,68.70
2022-07-26T05:55:52.616Z,68.49
2022-07-26T05:56:52.147Z,68.79
2022-07-26T05:57:52.148Z,68.99
2022-07-26T05:58:52.137Z,68.37
2022-07-26T05:59:52.125Z,67.66
2022-07-26T06:00:52.106Z,68.19
2022-07-26T06:01:52.604Z,68.00
2022-07-26T06:02:52.177Z,68.00
2022-07-26T06:03:52.152Z,68.60
2022-07-26T06:04:52.201Z,69.20
2022-07-26T06:05:52.037Z,68.76
2022-07-26T06:06:52.065Z,68.13
2022-07-26T06:07:52.458Z,66.61
2022-07-26T06:08:52.026Z,67.63
2022-07-26T06:09:51.985Z,67.63
2022-07-26T06:10:51.993Z,67.86
2022-07-26T06:11:51.973Z,67.83
2022-07-26T06:12:51.948Z,67.00
2022-07-26T06:13:56.504Z,66.80
2022-07-26T06:14:51.936Z,66.50
2022-07-26T06:15:51.934Z,66.41
2022-07-26T06:16:52.069Z,67.24
2022-07-26T06:17:51.925Z,67.03
2022-07-26T06:18:51.897Z,66.53
2022-07-26T06:19:52.306Z,66.80
2022-07-26T06:20:51.856Z,65.98
2022-07-26T06:21:51.834Z,64.55
2022-07-26T06:22:51.827Z,65.35
2022-07-26T06:23:51.849Z,65.05
2022-07-26T06:24:52.239Z,64.55
2022-07-26T06:25:51.823Z,64.45
2022-07-26T06:26:56.636Z,64.45
2022-07-26T06:27:52.765Z,64.75
2022-07-26T06:28:51.746Z,64.58
2022-07-26T06:29:51.838Z,65.01
2022-07-26T06:30:52.432Z,65.61
2022-07-26T06:31:51.785Z,65.84
2022-07-26T06:32:51.758Z,66.17
2022-07-26T06:33:51.685Z,66.60
2022-07-26T06:34:51.763Z,67.53
2022-07-26T06:35:51.685Z,67.53
2022-07-26T06:36:52.016Z,67.63
2022-07-26T06:37:51.657Z,67.70
2022-07-26T06:38:51.655Z,67.60
2022-07-26T06:39:51.646Z,66.87
2022-07-26T06:40:51.626Z,66.50
2022-07-26T06:41:51.900Z,66.60
2022-07-26T06:42:51.576Z,66.50
2022-07-26T06:43:51.565Z,67.33
2022-07-26T06:44:51.586Z,67.46
2022-07-26T06:45:51.588Z,67.76
2022-07-26T06:46:51.973Z,67.57
2022-07-26T06:47:51.538Z,67.96
2022-07-26T06:48:52.774Z,68.19
2022-07-26T06:49:51.515Z,69.20
2022-07-26T06:50:51.884Z,69.09
2022-07-26T06:51:51.496Z,68.59
2022-07-26T06:52:51.454Z,68.36
2022-07-26T06:53:51.440Z,68.26
2022-07-26T06:54:51.445Z,67.93
2022-07-26T06:55:51.424Z,68.00
2022-07-26T06:56:51.775Z,66.60
2022-07-26T06:57:51.405Z,67.33
2022-07-26T06:58:51.374Z,66.90
2022-07-26T06:59:51.355Z,66.67
2022-07-26T07:00:51.405Z,64.55
2022-07-26T07:01:59.834Z,63.16
2022-07-26T07:02:52.323Z,63.46
2022-07-26T07:03:51.316Z,62.21
2022-07-26T07:04:51.356Z,62.21
2022-07-26T07:05:51.313Z,59.08
2022-07-26T07:06:51.737Z,59.18
2022-07-26T07:07:51.265Z,58.88
2022-07-26T07:08:51.266Z,56.52
2022-07-26T07:09:51.236Z,56.65
2022-07-26T07:10:51.226Z,54.63
2022-07-26T07:11:56.219Z,51.57
2022-07-26T07:12:52.224Z,52.31
2022-07-26T07:13:51.180Z,51.30
2022-07-26T07:14:51.185Z,52.44
2022-07-26T07:15:51.343Z,52.53
2022-07-26T07:16:51.523Z,53.80
2022-07-26T07:17:51.173Z,54.61
2022-07-26T07:18:51.134Z,54.84
2022-07-26T07:19:51.257Z,54.94
2022-07-26T07:20:51.550Z,55.13
2022-07-26T07:21:51.185Z,54.12
2022-07-26T07:22:51.084Z,53.85
2022-07-26T07:23:51.065Z,53.63
2022-07-26T07:24:51.052Z,53.23
2022-07-26T07:25:51.035Z,53.13
2022-07-26T07:26:51.335Z,53.53
2022-07-26T07:27:51.348Z,53.33
2022-07-26T07:28:50.995Z,53.92
2022-07-26T07:29:50.985Z,51.42
2022-07-26T07:30:50.975Z,51.25
2022-07-26T07:31:51.468Z,52.69
2022-07-26T07:32:51.984Z,54.72
2022-07-26T07:33:53.429Z,57.18
2022-07-26T07:34:50.925Z,55.29
2022-07-26T07:35:50.944Z,53.82
2022-07-26T07:36:51.281Z,51.15
2022-07-26T07:37:52.557Z,49.74
2022-07-26T07:38:50.951Z,49.05
2022-07-26T07:39:50.899Z,49.96
2022-07-26T07:40:50.854Z,50.07
2022-07-26T07:41:50.865Z,49.43
2022-07-26T07:42:51.152Z,47.60
2022-07-26T07:43:50.841Z,45.68
2022-07-26T07:44:50.824Z,45.53
2022-07-26T07:45:50.787Z,47.06
2022-07-26T07:46:51.343Z,46.47
2022-07-26T07:47:50.785Z,46.22
2022-07-26T07:48:50.803Z,45.81
2022-07-26T07:49:50.745Z,45.88
2022-07-26T07:50:50.805Z,44.15
2022-07-26T07:51:51.106Z,43.12
2022-07-26T07:52:50.751Z,42.53
2022-07-26T07:53:56.473Z,42.53
2022-07-26T07:54:51.675Z,43.93
2022-07-26T07:55:50.693Z,43.41
2022-07-26T07:56:51.260Z,42.51
2022-07-26T07:57:50.664Z,41.78
2022-07-26T07:58:50.723Z,41.41
2022-07-26T07:59:50.636Z,44.31
2022-07-26T08:00:50.615Z,46.26
2022-07-26T08:01:50.962Z,46.15
2022-07-26T08:02:50.596Z,45.51
2022-07-26T08:03:50.964Z,45.53
2022-07-26T08:04:50.566Z,46.81
2022-07-26T08:05:50.773Z,47.08
2022-07-26T08:06:51.574Z,48.02
2022-07-26T08:07:50.837Z,48.73
2022-07-26T08:08:50.587Z,47.79
2022-07-26T08:09:51.171Z,46.15
2022-07-26T08:10:52.370Z,45.71
2022-07-26T08:11:51.311Z,44.98
2022-07-26T08:12:51.373Z,44.43
2022-07-26T08:13:50.483Z,44.96
2022-07-26T08:14:50.496Z,46.03
2022-07-26T08:15:50.923Z,44.21
2022-07-26T08:16:50.522Z,42.57
2022-07-26T08:17:54.104Z,41.77
2022-07-26T08:18:57.971Z,41.25
2022-07-26T08:19:51.404Z,40.96
2022-07-26T08:20:50.897Z,41.11
2022-07-26T08:21:50.386Z,39.80
2022-07-26T08:22:50.348Z,39.31
2022-07-26T08:23:50.338Z,38.80
2022-07-26T08:24:50.346Z,39.00
2022-07-26T08:25:57.083Z,39.27
2022-07-26T08:26:51.307Z,38.98
2022-07-26T08:28:02.829Z,38.65
2022-07-26T08:28:59.686Z,37.54
2022-07-26T08:29:51.268Z,36.05
2022-07-26T08:30:50.298Z,36.85
2022-07-26T08:31:50.312Z,37.12
2022-07-26T08:32:50.277Z,37.16
2022-07-26T08:33:50.267Z,37.43
2022-07-26T08:34:50.378Z,37.02
2022-07-26T08:35:50.247Z,36.82
2022-07-26T08:37:15.227Z,36.49
2022-07-26T08:37:51.207Z,37.63
2022-07-26T08:38:50.179Z,39.03
2022-07-26T08:39:50.177Z,40.17
2022-07-26T08:40:50.654Z,40.51
2022-07-26T08:41:50.184Z,40.80
2022-07-26T08:42:52.504Z,41.51
2022-07-26T08:43:51.886Z,41.19
2022-07-26T08:44:50.355Z,40.70
2022-07-26T08:45:50.553Z,40.90
2022-07-26T08:46:50.121Z,40.74
2022-07-26T08:48:14.862Z,41.99
2022-07-26T08:48:51.092Z,42.89
2022-07-26T08:49:50.515Z,43.23
2022-07-26T08:50:50.077Z,42.78
2022-07-26T08:51:50.077Z,43.12
2022-07-26T08:52:50.164Z,43.98
2022-07-26T08:53:50.064Z,44.06
2022-07-26T08:54:50.435Z,43.37
2022-07-26T08:56:06.479Z,42.66
2022-07-26T08:56:50.986Z,42.05
2022-07-26T08:57:49.962Z,41.73
2022-07-26T08:58:49.966Z,41.51
2022-07-26T08:59:50.266Z,41.39
2022-07-26T09:00:50.550Z,41.69
2022-07-26T09:01:49.918Z,41.38
2022-07-26T09:02:49.894Z,40.39
2022-07-26T09:03:50.042Z,41.99
2022-07-26T09:04:51.924Z,41.65
2022-07-26T09:05:49.948Z,42.90
2022-07-26T09:06:49.856Z,44.54
2022-07-26T09:07:49.835Z,45.83
2022-07-26T09:08:49.855Z,45.26
2022-07-26T09:09:50.143Z,45.08
2022-07-26T09:10:49.851Z,46.30
2022-07-26T09:11:49.857Z,46.49
2022-07-26T09:12:49.916Z,45.87
2022-07-26T09:13:49.767Z,45.45
2022-07-26T09:14:50.182Z,45.23
2022-07-26T09:15:49.826Z,45.83
2022-07-26T09:16:50.331Z,45.41
2022-07-26T09:17:49.721Z,44.80
2022-07-26T09:18:49.736Z,43.69
2022-07-26T09:19:50.362Z,43.59
2022-07-26T09:20:49.937Z,43.77
2022-07-26T09:21:50.446Z,44.16
2022-07-26T09:22:49.654Z,42.19
2022-07-26T09:23:50.018Z,42.56
2022-07-26T09:24:49.646Z,41.89
2022-07-26T09:25:49.609Z,43.25
2022-07-26T09:26:49.598Z,42.76
2022-07-26T09:27:49.625Z,42.24
2022-07-26T09:28:50.067Z,41.43
2022-07-26T09:29:49.569Z,42.58
2022-07-26T09:30:50.457Z,43.79
2022-07-26T09:31:49.587Z,43.91
2022-07-26T09:32:49.566Z,43.33
2022-07-26T09:33:50.053Z,44.45
2022-07-26T09:34:53.177Z,45.14
2022-07-26T09:35:50.645Z,44.84
2022-07-26T09:36:49.516Z,44.17
2022-07-26T09:37:49.504Z,44.98
2022-07-26T09:38:49.690Z,45.48
2022-07-26T09:39:49.505Z,45.30
2022-07-26T09:40:50.840Z,45.90
2022-07-26T09:42:04.771Z,45.42
2022-07-26T09:42:50.405Z,46.31
2022-07-26T09:43:53.645Z,46.12
2022-07-26T09:44:49.385Z,46.83
2022-07-26T09:45:49.359Z,46.49
2022-07-26T09:46:49.398Z,45.18
2022-07-26T09:47:49.388Z,45.48
2022-07-26T09:49:09.945Z,44.86
2022-07-26T09:49:50.364Z,43.06
2022-07-26T09:50:49.346Z,43.73
2022-07-26T09:51:49.316Z,43.71
2022-07-26T09:52:49.607Z,42.62
2022-07-26T09:53:49.280Z,43.31
2022-07-26T09:54:49.298Z,44.02
2022-07-26T09:55:49.266Z,43.63
2022-07-26T09:56:51.191Z,44.45
2022-07-26T09:57:49.519Z,44.37
2022-07-26T09:58:49.194Z,45.45
2022-07-26T09:59:49.225Z,44.27
2022-07-26T10:00:49.265Z,45.06
2022-07-26T10:01:49.181Z,44.54
2022-07-26T10:02:49.591Z,43.53
2022-07-26T10:03:49.164Z,42.99
2022-07-26T10:04:49.147Z,42.68
2022-07-26T10:05:49.098Z,41.47
2022-07-26T10:06:49.103Z,41.75
2022-07-26T10:07:49.478Z,40.64
2022-07-26T10:08:49.077Z,40.43
2022-07-26T10:09:49.054Z,40.21
2022-07-26T10:10:49.033Z,40.21
2022-07-26T10:11:49.046Z,40.09
2022-07-26T10:12:49.350Z,39.20
2022-07-26T10:13:49.004Z,39.81
2022-07-26T10:14:56.371Z,40.33
2022-07-26T10:15:49.009Z,40.64
2022-07-26T10:16:49.049Z,41.38
2022-07-26T10:17:49.667Z,42.01
2022-07-26T10:18:49.135Z,42.97
2022-07-26T10:19:48.942Z,42.07
2022-07-26T10:20:48.941Z,41.97
2022-07-26T10:21:48.995Z,42.07
2022-07-26T10:22:49.354Z,41.22
2022-07-26T10:23:48.889Z,42.14
2022-07-26T10:24:48.892Z,43.73
2022-07-26T10:25:48.872Z,43.06
2022-07-26T10:26:49.212Z,43.46
2022-07-26T10:27:48.856Z,43.26
2022-07-26T10:28:48.890Z,43.67
2022-07-26T10:29:48.815Z,43.55
2022-07-26T10:30:48.794Z,43.77
2022-07-26T10:31:49.220Z,44.46
2022-07-26T10:32:48.793Z,44.15
2022-07-26T10:33:48.755Z,43.85
2022-07-26T10:34:48.753Z,43.75
2022-07-26T10:35:48.757Z,43.48
2022-07-26T10:36:52.097Z,43.77
2022-07-26T10:37:49.739Z,43.87
2022-07-26T10:38:48.694Z,43.89
2022-07-26T10:39:48.692Z,43.99
2022-07-26T10:40:48.667Z,44.07
2022-07-26T10:41:49.102Z,43.85
2022-07-26T10:42:48.718Z,43.13
2022-07-26T10:43:48.633Z,43.43
2022-07-26T10:44:48.616Z,42.43
2022-07-26T10:45:50.143Z,42.05
2022-07-26T10:46:49.076Z,42.52
2022-07-26T10:47:48.584Z,43.10
2022-07-26T10:48:48.652Z,41.69
2022-07-26T10:49:48.576Z,41.79
2022-07-26T10:50:48.551Z,41.61
2022-07-26T10:51:53.082Z,42.25
2022-07-26T10:52:48.534Z,42.57
2022-07-26T10:53:48.553Z,43.26
2022-07-26T10:54:48.515Z,43.16
2022-07-26T10:55:48.483Z,43.28
2022-07-26T10:56:48.834Z,43.08
2022-07-26T10:57:48.483Z,43.38
2022-07-26T10:58:48.444Z,43.28
2022-07-26T10:59:55.747Z,42.98
2022-07-26T11:00:49.894Z,44.01
2022-07-26T11:01:48.457Z,44.11
2022-07-26T11:02:48.459Z,44.04
2022-07-26T11:03:48.383Z,44.63
2022-07-26T11:04:48.361Z,44.73
2022-07-26T11:05:50.957Z,44.95
2022-07-26T11:06:48.366Z,45.12
2022-07-26T11:07:48.330Z,45.15
2022-07-26T11:08:48.569Z,44.75
2022-07-26T11:09:48.302Z,45.34
2022-07-26T11:10:48.335Z,45.47
2022-07-26T11:11:48.303Z,45.89
2022-07-26T11:12:48.327Z,45.76
2022-07-26T11:13:48.293Z,45.15
2022-07-26T11:14:48.539Z,44.83
2022-07-26T11:15:48.664Z,44.81
2022-07-26T11:16:48.219Z,44.19
2022-07-26T11:17:48.322Z,44.56
2022-07-26T11:18:48.193Z,43.85
2022-07-26T11:19:48.181Z,43.31
2022-07-26T11:20:48.600Z,43.19
2022-07-26T11:21:48.296Z,41.49
2022-07-26T11:22:48.370Z,42.07
2022-07-26T11:23:48.133Z,41.69
2022-07-26T11:24:48.115Z,41.79
2022-07-26T11:25:48.194Z,43.29
2022-07-26T11:26:48.096Z,42.62
2022-07-26T11:27:48.071Z,42.96
2022-07-26T11:28:48.065Z,43.99
2022-07-26T11:29:49.156Z,43.57
2022-07-26T11:30:48.079Z,43.75
2022-07-26T11:31:50.673Z,43.83
2022-07-26T11:32:49.322Z,43.31
2022-07-26T11:33:48.594Z,43.19
2022-07-26T11:34:48.052Z,41.89
2022-07-26T11:35:47.995Z,42.36
2022-07-26T11:36:47.983Z,40.66
2022-07-26T11:37:52.033Z,40.43
2022-07-26T11:38:47.964Z,39.15
2022-07-26T11:39:48.122Z,40.01
2022-07-26T11:40:48.462Z,40.25
2022-07-26T11:41:48.023Z,41.14
2022-07-26T11:42:47.893Z,41.47
2022-07-26T11:43:47.883Z,42.50
2022-07-26T11:44:48.329Z,42.72
2022-07-26T11:45:47.892Z,43.24
2022-07-26T11:46:48.068Z,43.08
2022-07-26T11:47:47.905Z,43.38
2022-07-26T11:48:47.989Z,43.57
2022-07-26T11:50:00.287Z,43.77
2022-07-26T11:50:48.788Z,44.07
2022-07-26T11:51:47.771Z,43.46
2022-07-26T11:52:47.754Z,43.13
2022-07-26T11:53:47.852Z,43.21
2022-07-26T11:54:50.032Z,42.99
2022-07-26T11:55:47.784Z,42.68
2022-07-26T11:56:47.770Z,41.30
2022-07-26T11:57:47.739Z,42.68
2022-07-26T11:58:47.683Z,42.58
2022-07-26T11:59:48.079Z,42.19
2022-07-26T12:00:47.675Z,42.58
2022-07-26T12:01:49.828Z,42.38
2022-07-26T12:02:50.347Z,42.43
2022-07-26T12:03:49.286Z,43.35
2022-07-26T12:04:47.684Z,43.87
2022-07-26T12:05:47.718Z,44.37
2022-07-26T12:06:47.584Z,44.68
2022-07-26T12:07:47.579Z,44.78
2022-07-26T12:08:50.408Z,44.90
2022-07-26T12:09:47.586Z,45.20
2022-07-26T12:10:54.730Z,44.90
2022-07-26T12:11:55.679Z,44.89
2022-07-26T12:12:54.550Z,44.90
2022-07-26T12:13:55.321Z,44.86
2022-07-26T12:14:48.497Z,44.46
2022-07-26T12:15:47.629Z,44.56
2022-07-26T12:16:47.460Z,44.27
2022-07-26T12:17:47.459Z,44.78
2022-07-26T12:18:47.775Z,44.51
2022-07-26T12:19:47.419Z,44.90
2022-07-26T12:20:50.667Z,44.96
2022-07-26T12:21:48.473Z,44.67
2022-07-26T12:22:47.400Z,44.64
2022-07-26T12:23:47.914Z,43.75
2022-07-26T12:24:47.452Z,43.65
2022-07-26T12:25:49.425Z,43.16
2022-07-26T12:26:48.847Z,44.23
2022-07-26T12:27:47.582Z,42.94
2022-07-26T12:28:47.769Z,43.80
2022-07-26T12:29:47.389Z,43.80
2022-07-26T12:30:47.524Z,42.60
2022-07-26T12:31:47.330Z,42.50
2022-07-26T12:32:47.297Z,41.81
2022-07-26T12:33:47.668Z,42.01
2022-07-26T12:34:47.269Z,42.30
2022-07-26T12:35:47.343Z,41.22
2022-07-26T12:36:47.550Z,40.33
2022-07-26T12:37:47.914Z,41.04
2022-07-26T12:38:47.783Z,41.44
2022-07-26T12:39:47.170Z,41.22
2022-07-26T12:40:47.170Z,40.42
2022-07-26T12:41:47.170Z,40.80
2022-07-26T12:42:47.437Z,40.01
2022-07-26T12:43:49.095Z,40.70
2022-07-26T12:44:47.098Z,41.12
2022-07-26T12:45:47.141Z,40.92
2022-07-26T12:46:47.130Z,41.22
2022-07-26T12:47:47.071Z,40.90
2022-07-26T12:48:47.575Z,41.00
2022-07-26T12:49:47.119Z,41.30
2022-07-26T12:50:47.646Z,39.62
2022-07-26T12:51:48.360Z,40.23
2022-07-26T12:52:47.428Z,40.21
2022-07-26T12:53:47.110Z,39.60
2022-07-26T12:54:46.971Z,39.78